Latest Coastal Weather Observations for Darwin Airport

IDD60701

Issued at 7:41 pm CST Saturday 22 February 2020 (issued every 10 minutes, with the page automatically refreshed every 10 minutes)

About coastal observations | Map of coastal stations | Coastal observations for NT | Marine services | Other Formats
Station Details ID: 014015 Name: DARWIN AIRPORT Lat: -12.42 Lon: 130.89 Height: 30.4 m
Data from the previous 72 hours. | See also: Recent months at Darwin Airport
Date/Time
CST
Wind Sea
Height
m
Swell Vis
km
Cloud Weather Temp
°C
Press
hPa
Rain since
9am
mm
Dir  Spd
kts
Gust
kts
Height
m
Period
s
Dir
22/07:30pm W 11 16 - - - - 10 Partly cloudy - 30.0 1006.1 0.0
22/07:00pm W 10 16 - - - - 10 Mostly clear - 30.1 1005.7 0.0
22/06:30pm W 13 18 - - - - 10 Mostly clear - 30.5 1005.2 0.0
22/06:00pm W 12 16 - - - - 30 Mostly cloudy Fine 30.8 1005.2 0.0
22/05:30pm W 12 17 - - - - 10 Mostly clear - 31.4 1004.9 0.0
22/05:00pm W 14 19 - - - - 10 Mostly clear - 31.6 1004.9 0.0
22/04:30pm WNW 13 18 - - - - 10 Mostly clear - 31.9 1005.3 0.0
22/04:00pm WNW 14 20 - - - - 10 Mostly clear - 32.1 1005.4 0.0
22/03:30pm WNW 14 18 - - - - 10 Mostly clear - 32.6 1005.5 0.0
22/03:00pm W 13 16 - - - - 30 Mostly cloudy Fine 32.9 1006.0 0.0
22/02:30pm W 14 19 - - - - 10 Mostly clear - 33.1 1006.4 0.0
22/02:00pm W 12 16 - - - - 10 Mostly clear - 33.7 1006.7 0.0
22/01:30pm W 11 16 - - - - 10 Mostly clear - 33.3 1007.1 0.0
22/01:00pm W 12 16 - - - - 10 Mostly clear - 32.8 1007.7 0.0
22/12:30pm W 13 18 - - - - 10 Partly cloudy - 32.8 1008.2 0.0
22/12:00pm W 11 16 - - - - 30 Partly cloudy Fine 32.4 1008.2 0.0
22/11:30am WSW 12 17 - - - - 10 Mostly clear - 31.8 1008.4 0.0
22/11:00am WSW 13 18 - - - - 10 Mostly clear - 32.0 1008.5 0.0
22/10:30am WSW 13 18 - - - - 10 Mostly clear - 31.5 1008.8 0.0
22/10:00am WSW 13 18 - - - - 10 Mostly clear - 31.1 1008.8 0.0
22/09:30am WSW 14 19 - - - - 10 Mostly clear - 30.8 1008.8 0.0
22/09:00am WSW 12 17 - - - - 30 Partly cloudy Fine 30.9 1008.6 37.4
22/08:30am WSW 13 19 - - - - 10 Mostly clear - 30.3 1008.4 37.4
22/08:00am WSW 11 15 - - - - 10 Mostly clear - 29.5 1008.1 37.4
22/07:30am WSW 10 16 - - - - 10 Mostly clear - 29.1 1007.8 37.4
22/07:00am WSW 9 13 - - - - 10 Mostly clear - 28.7 1007.5 37.4
22/06:30am W 10 15 - - - - 10 Mostly clear - 28.7 1007.4 37.4
22/06:00am W 9 12 - - - - 30 Mostly clear Fine 28.6 1007.3 37.4
22/05:30am W 9 12 - - - - 10 Mostly clear - 28.6 1007.3 37.4
22/05:00am W 9 13 - - - - 10 - - 28.5 1007.1 37.4
22/04:30am W 8 12 - - - - 10 Partly cloudy - 28.7 1007.1 37.4
22/04:00am W 8 12 - - - - 10 - - 28.3 1007.0 37.4
22/03:30am W 7 10 - - - - 10 Partly cloudy - 28.3 1007.0 37.4
22/03:00am W 6 9 - - - - 10 Mostly cloudy - 28.1 1007.4 37.4
22/02:30am NW 6 9 - - - - 10 Partly cloudy - 27.5 1007.8 37.4
22/02:00am NNW 4 6 - - - - 10 Partly cloudy - 27.4 1008.3 37.4
22/01:30am NNW 5 8 - - - - 10 Partly cloudy - 27.4 1008.9 37.4
22/01:00am WNW 10 13 - - - - 10 Partly cloudy - 27.7 1008.9 37.4
22/12:30am WNW 8 10 - - - - 10 Partly cloudy - 28.1 1010.1 37.4
22/12:00am W 5 8 - - - - 25 Mostly cloudy Distant precip. 27.7 1010.2 37.4
 
Date/Time
CST
Wind Sea
Height
m
Swell Vis
km
Cloud Weather Temp
°C
Press
hPa
Rain since
9am
mm
Dir  Spd
kts
Gust
kts
Height
m
Period
s
Dir
21/11:30pm WNW 6 8 - - - - 10 Mostly clear - 27.2 1010.1 37.4
21/11:00pm WNW 4 5 - - - - 10 Mostly clear - 27.0 1010.2 37.4
21/10:30pm NE 1 3 - - - - 10 Partly cloudy - 27.3 1009.7 37.4
21/10:00pm W 3 4 - - - - 10 Mostly clear - 27.6 1009.8 37.4
21/09:30pm WNW 4 6 - - - - 10 Mostly clear - 28.1 1009.3 37.4
21/09:00pm W 6 7 - - - - 30 Mostly cloudy Fine 28.0 1008.6 37.4
21/08:30pm W 5 6 - - - - 10 - - 27.9 1008.2 37.4
21/08:00pm W 8 10 - - - - 10 Partly cloudy Rain 27.7 1007.6 37.4
21/07:30pm W 5 6 - - - - 10 Mostly clear - 27.0 1007.7 37.4
21/07:00pm W 4 7 - - - - 10 Mostly clear Rain 26.6 1007.4 37.2
21/06:30pm W 8 10 - - - - 10 Mostly clear - 24.9 1007.0 37.0
21/06:25pm W 8 11 - - - - 10 Mostly clear Rain 24.7 1006.9 37.0
21/06:09pm WNW 12 16 - - - - 6 Mostly clear Thunderstorm 24.8 1006.7 35.8
21/06:00pm W 11 18 - - - - 15 Cloudy Thunderstorm 25.4 1006.8 35.0
21/05:59pm W 11 18 - - - - 10 Mostly clear Thunderstorm 25.4 1006.8 35.0
21/05:30pm WNW 17 24 - - - - 10 Mostly clear - 25.1 1006.5 34.6
21/05:19pm WNW 21 26 - - - - 8 Mostly clear Showers 25.3 1006.2 34.4
21/05:00pm WNW 8 10 - - - - 2 Mostly clear Showers 25.1 1006.3 27.6
21/04:44pm W 17 24 - - - - 0.7 Mostly clear Showers 26.4 1006.8 8.2
21/04:38pm W 15 24 - - - - 1 Mostly clear Showers 27.4 1006.6 1.4
21/04:35pm W 13 23 - - - - 9 Mostly clear Showers 28.2 1006.4 0.2
21/04:30pm WNW 11 17 - - - - 10 Mostly clear - 28.5 1006.1 0.2
21/04:00pm NW 10 15 - - - - 10 Partly cloudy - 30.1 1006.2 0.2
21/03:30pm W 3 6 - - - - 10 Mostly clear - 32.2 1006.5 0.2
21/03:00pm WNW 3 6 - - - - 30 Cloudy Distant precip. 32.0 1006.7 0.2
21/02:30pm S 3 5 - - - - 10 Mostly clear - 31.7 1007.0 0.2
21/02:00pm SSW 5 7 - - - - 10 Mostly clear - 31.4 1007.6 0.2
21/01:30pm SSW 5 9 - - - - 10 Mostly clear - 31.3 1008.1 0.2
21/01:00pm SSW 7 11 - - - - 10 Partly cloudy - 31.6 1008.5 0.2
21/12:30pm S 7 10 - - - - 10 Partly cloudy - 30.8 1008.6 0.2
21/12:00pm SSW 9 14 - - - - 30 Mostly cloudy Fine 30.2 1008.7 0.2
21/11:30am SSW 9 15 - - - - 10 Mostly clear - 30.5 1008.9 0.2
21/11:00am SSW 9 13 - - - - 10 Partly cloudy - 29.2 1009.0 0.2
21/10:30am SW 9 13 - - - - 10 Mostly clear - 29.1 1009.1 0.0
21/10:00am SSW 7 11 - - - - 10 Mostly clear - 28.7 1009.1 0.0
21/09:30am SSW 8 11 - - - - 10 Mostly clear - 27.7 1009.1 0.0
21/09:00am SW 6 8 - - - - 30 Partly cloudy Fine 27.8 1008.8 37.2
21/08:30am WSW 4 5 - - - - 10 Mostly clear - 27.1 1008.3 37.2
21/08:00am SW 3 4 - - - - 10 Mostly clear - 26.3 1008.0 37.2
21/07:30am SSW 3 4 - - - - 10 Mostly clear - 25.5 1007.4 37.2
21/07:00am SSW 5 6 - - - - 10 - - 24.6 1007.2 37.2
21/06:30am WNW 3 4 - - - - 10 - - 24.7 1006.9 37.2
21/06:00am W 3 4 - - - - 30 Mostly cloudy Fine 24.7 1006.7 37.2
21/05:30am SW 4 5 - - - - 10 - - 24.4 1007.0 37.2
21/05:00am S 5 6 - - - - 10 Partly cloudy - 24.2 1007.5 37.2
21/04:30am S 6 9 - - - - 10 Partly cloudy - 24.3 1007.9 37.2
21/04:00am SSE 8 10 - - - - 10 Partly cloudy - 24.5 1008.4 37.2
21/03:30am SE 9 16 - - - - 10 - - 24.9 1008.5 37.0
21/03:00am N 4 6 - - - - 10 Cloudy Showers 25.6 1007.8 37.0
21/02:30am NNE 7 9 - - - - 10 Partly cloudy - 25.5 1007.6 37.0
21/02:00am N 9 12 - - - - 10 - - 25.4 1007.9 37.0
21/01:30am NNE 10 14 - - - - 10 - - 25.3 1008.4 37.0
21/01:00am NNE 11 16 - - - - 10 - - 24.9 1008.9 36.6
21/12:30am NE 15 21 - - - - 10 - - 24.1 1009.5 36.4
21/12:00am NE 13 17 - - - - 15 Cloudy Rain 24.1 1010.0 36.0
 
Date/Time
CST
Wind Sea
Height
m
Swell Vis
km
Cloud Weather Temp
°C
Press
hPa
Rain since
9am
mm
Dir  Spd
kts
Gust
kts
Height
m
Period
s
Dir
20/11:30pm NE 12 15 - - - - 10 Partly cloudy - 23.8 1010.4 35.4
20/11:00pm NE 6 9 - - - - 10 Mostly clear Rain 23.8 1010.4 34.8
20/10:30pm ENE 6 8 - - - - 8 Cloudy - 23.7 1010.3 33.4
20/10:20pm E 5 8 - - - - 6 Cloudy Rain 23.8 1010.2 32.4
20/10:00pm ESE 8 10 - - - - 10 Cloudy Rain 23.9 1010.2 30.6
20/09:38pm ESE 10 13 - - - - 6 Mostly clear Rain 23.7 1010.1 28.6
20/09:30pm SE 10 15 - - - - 9 Mostly clear - 23.8 1010.1 28.0
20/09:09pm SE 13 19 - - - - 10 Partly cloudy - 23.8 1008.9 27.0
20/09:00pm SE 13 18 - - - - 10 Cloudy Thunderstorm 23.7 1008.9 26.6
20/08:33pm SE 18 28 - - - - 1 Partly cloudy - 23.6 1008.4 20.0
20/08:30pm SE 19 28 - - - - 2 Partly cloudy - 23.7 1008.6 18.2
20/08:13pm SW 11 29 - - - - 2 Mostly clear Thunderstorm 25.0 1007.6 3.8
20/08:08pm SW 9 12 - - - - 2 Partly cloudy Showers 29.5 1007.1 2.0
20/08:00pm WSW 6 9 - - - - 10 Partly cloudy Thunder 28.5 1006.7 2.0
20/07:30pm WNW 14 19 - - - - 10 Partly cloudy - 27.1 1006.5 2.0
20/07:00pm WSW 14 19 - - - - 8 Partly cloudy Showers 28.0 1006.0 2.0
20/06:47pm WSW 15 20 - - - - 4 Partly cloudy Showers 28.9 1005.9 1.0
20/06:43pm W 14 19 - - - - 6 Partly cloudy Showers 30.6 1005.7 0.0
20/06:30pm WSW 11 15 - - - - 10 Partly cloudy - 30.8 1005.4 0.0
20/06:00pm W 11 16 - - - - 20 Cloudy Distant precip. 31.0 1005.0 0.0
20/05:30pm W 15 22 - - - - 10 Mostly clear - 31.6 1003.8 0.0
20/05:00pm W 15 21 - - - - 10 Mostly clear - 31.6 1004.1 0.0
20/04:30pm W 15 20 - - - - 10 Partly cloudy - 31.6 1004.2 0.0
20/04:00pm W 12 17 - - - - 10 Mostly clear - 30.7 1004.5 0.0
20/03:30pm W 11 14 - - - - 10 Mostly clear - 31.1 1004.8 0.0
20/03:00pm WSW 12 17 - - - - 30 Mostly cloudy Distant precip. 30.7 1005.7 0.0
20/02:30pm W 13 18 - - - - 10 Mostly clear - 30.9 1006.3 0.0
20/02:00pm W 13 17 - - - - 10 Mostly clear - 31.2 1006.6 0.0
20/01:30pm WSW 14 17 - - - - 10 Partly cloudy - 31.5 1006.9 0.0
20/01:00pm W 10 14 - - - - 10 Mostly clear - 31.9 1007.2 0.0
20/12:30pm WSW 14 19 - - - - 10 Mostly clear - 31.5 1007.0 0.0
20/12:00pm WSW 13 16 - - - - 30 Mostly cloudy Fine 30.9 1007.1 0.0
20/11:30am WSW 13 16 - - - - 10 Mostly clear - 30.6 1007.5 0.0
20/11:00am W 10 14 - - - - 10 Mostly clear - 30.0 1008.0 0.0
20/10:30am WSW 6 8 - - - - 10 Mostly clear - 28.8 1008.4 0.0
20/10:00am SW 6 9 - - - - 10 - - 28.4 1008.5 0.0
20/09:30am SW 5 7 - - - - 10 - - 27.8 1007.9 0.0
20/09:00am WSW 2 3 - - - - 30 Mostly cloudy Fine 27.9 1007.6 42.4
20/08:30am W 4 5 - - - - 10 - - 26.7 1007.3 42.4
20/08:00am W 4 5 - - - - 10 - - 25.7 1007.5 42.4
20/07:30am W 6 7 - - - - 10 - - 24.9 1007.0 42.4
20/07:00am NW 3 4 - - - - 10 Partly cloudy Rain 24.3 1006.9 42.4
20/06:30am W 7 9 - - - - 10 Mostly clear - 23.8 1006.9 42.2
20/06:00am ENE 3 4 - - - - 12 Cloudy Rain 23.8 1006.7 41.6
20/05:30am ESE 2 3 - - - - 8 Mostly clear - 23.4 1007.3 39.8
20/05:09am SSE 4 8 - - - - 6 - - 23.3 1007.7 38.6
20/05:00am S 4 8 - - - - 8 - - 23.3 1007.8 37.8
20/04:36am SSE 3 6 - - - - 8 Partly cloudy - 23.2 1007.5 36.8
20/04:30am SSE 6 10 - - - - 9 Partly cloudy - 23.3 1007.2 36.4
20/04:15am S 11 16 - - - - 6 Partly cloudy - 23.2 1007.9 34.8
20/04:00am S 11 17 - - - - 10 Partly cloudy - 23.0 1008.3 32.6
20/03:31am ESE 6 10 - - - - 8 Partly cloudy - 22.3 1008.0 31.2
20/03:30am ESE 6 10 - - - - 8 Partly cloudy - 22.3 1007.9 31.0
20/03:04am SE 11 16 - - - - 6 Partly cloudy - 22.3 1007.7 28.4
20/03:00am ESE 12 17 - - - - 8 Cloudy Showers 22.3 1007.9 27.8
20/02:39am ESE 15 22 - - - - 3 Partly cloudy - 22.0 1008.4 25.2
20/02:30am ESE 20 34 - - - - 2 Partly cloudy - 22.0 1008.6 21.2
20/02:12am E 23 37 - - - - 2 Partly cloudy - 22.4 1009.4 5.0
20/02:10am E 22 37 - - - - 3 Partly cloudy - 22.6 1009.5 3.4
20/02:08am E 21 37 - - - - 4 Partly cloudy - 22.8 1009.5 1.8
20/02:06am E 19 29 - - - - 5 Partly cloudy - 23.2 1009.6 1.0
20/02:00am NE 12 25 - - - - 10 Partly cloudy - 26.0 1009.0 0.0
20/01:56am NNE 6 25 - - - - 10 Partly cloudy - 26.7 1008.5 0.0
20/01:30am WNW 6 8 - - - - 10 Partly cloudy - 29.8 1006.7 0.0
20/01:00am NW 8 10 - - - - 10 Partly cloudy - 30.0 1007.2 0.0
20/12:30am WNW 9 13 - - - - 10 Partly cloudy - 30.0 1007.3 0.0
20/12:00am WNW 8 11 - - - - 30 Mostly cloudy Lightning 29.9 1007.5 0.0
 
Date/Time
CST
Wind Sea
Height
m
Swell Vis
km
Cloud Weather Temp
°C
Press
hPa
Rain since
9am
mm
Dir  Spd
kts
Gust
kts
Height
m
Period
s
Dir
19/11:30pm W 5 8 - - - - 10 Mostly clear - 29.7 1007.7 0.0
19/11:00pm WNW 9 12 - - - - 10 Mostly clear - 29.9 1007.5 0.0
19/10:30pm WNW 9 11 - - - - 10 Mostly clear - 30.1 1007.4 0.0
19/10:00pm WNW 8 11 - - - - 10 Mostly clear - 29.9 1007.0 0.0
19/09:30pm W 9 11 - - - - 10 Mostly clear - 30.0 1006.7 0.0
19/09:00pm W 8 11 - - - - 30 Mostly cloudy Lightning 30.1 1006.0 0.0
19/08:30pm W 9 15 - - - - 10 Mostly clear - 30.3 1005.8 0.0
19/08:00pm WNW 9 13 - - - - 10 Mostly clear - 30.3 1005.9 0.0

Other formats

Comma delimited format used in spreadsheet applications
http://www.bom.gov.au/fwo/IDD60701/IDD60701.94120.axf

JavaScript Object Notation format (JSON) in row-major order
http://www.bom.gov.au/fwo/IDD60701/IDD60701.94120.json

Data quality

Most of these data are generated automatically and are frequently updated. Quality checks on data are not normally performed. It is possible for incorrect values to appear. Refer to information at About Latest Weather Observations and please check the disclaimer before using these data.